Time;durP1;ratioP1;P1;durP2;ratioP2;P2;SDS_P1;SDS_P2;PMS_P1;PMS_P2;Temp;Humidity;BMP_temperature;BMP_pressure;BME280_temperature;BME280_humidity;BME280_pressure;Samples;Min_cycle;Max_cycle;Signal;HPM_P1;HPM_P2
2023/01/07 00:01:38;;;;;;;13.40;4.95;;;3.10;99.90;;;;;;5129001;27;20031;-61
2023/01/07 00:04:07;;;;;;;9.18;4.13;;;3.00;99.90;;;;;;5118391;27;20032;-61
2023/01/07 00:06:38;;;;;;;9.07;4.22;;;3.00;99.90;;;;;;5126702;27;20091;-61
2023/01/07 00:09:07;;;;;;;6.18;3.30;;;3.00;99.90;;;;;;5130193;27;20031;-61
2023/01/07 00:11:36;;;;;;;8.35;3.83;;;2.90;99.90;;;;;;5121142;27;20039;-61
2023/01/07 00:14:05;;;;;;;9.95;4.43;;;2.80;99.90;;;;;;5124125;27;20445;-61
2023/01/07 00:16:33;;;;;;;10.30;5.55;;;2.80;99.90;;;;;;5129714;27;20043;-61
2023/01/07 00:19:02;;;;;;;11.60;5.32;;;2.70;99.90;;;;;;5119168;27;20043;-60
2023/01/07 00:21:29;;;;;;;12.10;5.07;;;2.60;99.90;;;;;;5121852;27;20043;-61
2023/01/07 00:23:59;;;;;;;10.25;5.15;;;2.60;99.90;;;;;;5129039;27;20146;-60
2023/01/07 00:26:29;;;;;;;10.07;4.50;;;2.60;99.90;;;;;;5124841;27;20778;-60
2023/01/07 00:28:56;;;;;;;9.13;4.40;;;2.60;99.90;;;;;;5123226;27;20152;-61
2023/01/07 00:31:26;;;;;;;9.82;4.95;;;2.60;99.90;;;;;;5107199;27;20174;-60
2023/01/07 00:36:22;;;;;;;12.02;5.50;;;2.50;99.90;;;;;;5110212;28;20039;-60
2023/01/07 00:39:01;;;;;;;8.70;4.20;;;2.50;99.90;;;;;;5104877;27;20043;-61
2023/01/07 00:41:28;;;;;;;8.18;4.70;;;2.40;99.90;;;;;;5124634;27;20079;-61
2023/01/07 00:43:55;;;;;;;9.32;4.65;;;2.30;99.90;;;;;;5108844;28;20048;-60
2023/01/07 00:46:22;;;;;;;10.15;3.88;;;2.30;99.90;;;;;;5119644;27;20551;-60
2023/01/07 00:48:49;;;;;;;8.43;3.72;;;2.30;99.90;;;;;;5096389;28;20497;-60
2023/01/07 00:51:17;;;;;;;8.57;3.75;;;2.20;99.90;;;;;;5082245;28;20474;-61
2023/01/07 00:53:44;;;;;;;6.78;2.90;;;2.50;99.90;;;;;;5112849;27;20512;-61
2023/01/07 00:56:13;;;;;;;5.50;2.63;;;2.10;99.90;;;;;;5074525;28;20385;-61
2023/01/07 00:58:41;;;;;;;5.25;2.63;;;2.10;99.90;;;;;;5075146;27;20063;-61
2023/01/07 01:01:09;;;;;;;8.43;4.30;;;2.10;99.90;;;;;;5074134;28;20059;-60
2023/01/07 01:03:36;;;;;;;11.63;5.50;;;2.20;99.90;;;;;;5113117;27;20531;-61
2023/01/07 01:06:06;;;;;;;10.63;5.03;;;2.20;99.90;;;;;;5109401;27;20529;-61
2023/01/07 01:08:32;;;;;;;9.48;5.18;;;2.20;99.90;;;;;;5133326;27;20445;-61
2023/01/07 01:11:07;;;;;;;9.82;4.78;;;2.30;99.90;;;;;;5133095;27;20043;-61
2023/01/07 01:13:34;;;;;;;8.63;4.53;;;2.30;99.90;;;;;;5112627;28;20054;-61
2023/01/07 01:16:06;;;;;;;9.88;5.60;;;2.30;99.90;;;;;;5102698;28;20044;-61
2023/01/07 01:18:32;;;;;;;11.75;4.85;;;2.30;99.90;;;;;;5108956;27;20047;-61
2023/01/07 01:21:09;;;;;;;10.15;4.72;;;2.20;99.90;;;;;;5115006;27;20043;-61
2023/01/07 01:23:36;;;;;;;10.38;5.00;;;2.20;99.90;;;;;;5118506;27;20039;-61
2023/01/07 01:26:04;;;;;;;;;;;2.30;99.90;;;;;;5109593;28;20070;-60
2023/01/07 01:28:32;;;;;;;11.43;5.55;;;2.20;99.90;;;;;;5094683;28;20028;-61
2023/01/07 01:30:59;;;;;;;8.15;5.13;;;2.20;99.90;;;;;;5109274;28;20038;-60
2023/01/07 01:33:32;;;;;;;12.02;5.57;;;2.10;99.90;;;;;;5094077;28;20749;-60
2023/01/07 01:36:03;;;;;;;11.85;5.55;;;2.10;99.90;;;;;;5093946;28;20514;-60
2023/01/07 01:38:29;;;;;;;10.20;5.00;;;2.10;99.90;;;;;;5094100;28;20043;-60
2023/01/07 01:40:56;;;;;;;8.00;4.80;;;2.10;99.90;;;;;;5092468;28;20044;-60
2023/01/07 01:43:35;;;;;;;4.22;2.40;;;2.10;99.90;;;;;;5100131;27;20058;-61
2023/01/07 01:46:09;;;;;;;4.18;2.00;;;2.10;99.90;;;;;;5111979;28;20048;-61
2023/01/07 01:48:38;;;;;;;7.00;2.50;;;2.00;99.90;;;;;;5112407;27;20036;-61
2023/01/07 01:51:08;;;;;;;5.72;2.88;;;2.00;99.90;;;;;;5074212;28;20043;-60
2023/01/07 01:53:35;;;;;;;8.82;3.28;;;1.90;99.90;;;;;;5093377;28;20450;-61
2023/01/07 01:56:07;;;;;;;12.63;3.33;;;1.80;99.90;;;;;;5090360;28;20044;-61
2023/01/07 01:58:38;;;;;;;9.82;3.63;;;1.70;99.90;;;;;;5107744;28;20055;-61
2023/01/07 02:01:05;;;;;;;5.32;3.25;;;1.80;99.90;;;;;;5073874;28;20048;-61
2023/01/07 02:03:34;;;;;;;4.95;2.97;;;1.70;99.90;;;;;;5080728;28;20139;-60
2023/01/07 02:06:02;;;;;;;6.68;3.00;;;1.70;99.90;;;;;;5091020;28;20044;-60
2023/01/07 02:08:29;;;;;;;4.88;2.22;;;1.60;99.90;;;;;;5091273;28;20048;-60
2023/01/07 02:11:30;;;;;;;7.07;3.17;;;1.60;99.90;;;;;;5093160;28;20032;-60
2023/01/07 02:14:18;;;;;;;4.05;2.67;;;1.70;99.90;;;;;;5094641;27;20035;-62
2023/01/07 02:16:55;;;;;;;8.50;2.72;;;1.70;99.90;;;;;;5114302;27;20035;-60
2023/01/07 02:19:44;;;;;;;5.53;2.88;;;1.70;99.90;;;;;;5114309;27;20035;-60
2023/01/07 02:22:19;;;;;;;5.90;2.80;;;1.70;99.90;;;;;;5117136;27;20495;-60
2023/01/07 02:24:59;;;;;;;5.93;2.72;;;1.70;99.90;;;;;;5100093;27;20051;-60
2023/01/07 02:27:50;;;;;;;5.07;2.30;;;1.70;99.90;;;;;;5102775;28;20138;-60
2023/01/07 02:30:30;;;;;;;6.18;2.28;;;1.70;99.90;;;;;;5104572;27;20458;-60
2023/01/07 02:33:18;;;;;;;4.13;2.53;;;1.60;99.90;;;;;;5110303;28;20062;-60
2023/01/07 02:36:04;;;;;;;4.45;2.30;;;1.60;99.90;;;;;;5110734;28;20408;-61
2023/01/07 02:39:07;;;;;;;5.38;2.38;;;1.50;99.90;;;;;;5108898;27;20046;-60
2023/01/07 02:41:58;;;;;;;7.05;2.60;;;1.50;99.90;;;;;;5113640;27;20109;-60
2023/01/07 02:44:34;;;;;;;8.02;2.90;;;1.50;99.90;;;;;;5070194;27;20058;-60
2023/01/07 02:47:27;;;;;;;6.85;3.17;;;1.40;99.90;;;;;;5106370;28;20710;-60
2023/01/07 02:49:56;;;;;;;7.90;3.55;;;1.40;99.90;;;;;;5101827;28;20044;-60
2023/01/07 02:52:27;;;;;;;6.75;3.30;;;1.40;99.90;;;;;;5110136;28;20069;-60
2023/01/07 02:55:20;;;;;;;7.43;4.13;;;1.40;99.90;;;;;;5092901;28;20576;-61
2023/01/07 02:58:14;;;;;;;8.45;4.95;;;1.40;99.90;;;;;;5099105;28;20039;-60
2023/01/07 03:01:18;;;;;;;7.60;4.63;;;1.50;99.90;;;;;;5126986;27;20047;-60
2023/01/07 03:04:13;;;;;;;4.38;2.65;;;1.40;99.90;;;;;;5131665;27;20047;-60
2023/01/07 03:07:11;;;;;;;7.00;3.05;;;1.30;99.90;;;;;;5110336;28;20139;-60
2023/01/07 03:10:11;;;;;;;3.03;1.65;;;1.10;99.90;;;;;;5110176;28;20485;-60
2023/01/07 03:12:56;;;;;;;2.55;1.90;;;1.00;99.90;;;;;;5098315;28;20045;-60
2023/01/07 03:15:30;;;;;;;6.28;2.20;;;0.90;99.90;;;;;;5096446;28;20096;-61
2023/01/07 03:18:03;;;;;;;4.20;2.63;;;0.80;99.90;;;;;;5113690;28;20043;-60
2023/01/07 03:20:34;;;;;;;3.22;2.30;;;0.80;99.90;;;;;;5105614;28;20051;-60
2023/01/07 03:23:05;;;;;;;4.55;2.58;;;0.90;99.90;;;;;;5090668;28;20044;-60
2023/01/07 03:25:36;;;;;;;8.55;3.42;;;0.90;99.90;;;;;;5090484;28;20066;-60
2023/01/07 03:28:06;;;;;;;6.13;3.20;;;1.00;99.90;;;;;;5128897;22;20031;-63
2023/01/07 03:30:33;;;;;;;3.80;2.63;;;1.00;99.90;;;;;;5066268;28;20040;-60
2023/01/07 03:33:08;;;;;;;3.60;1.70;;;1.00;99.90;;;;;;5083731;28;20051;-63
2023/01/07 03:35:39;;;;;;;3.97;1.92;;;1.00;99.90;;;;;;5069373;28;20051;-63
2023/01/07 03:38:08;;;;;;;5.63;2.13;;;0.90;99.90;;;;;;5064216;28;20047;-63
2023/01/07 03:40:36;;;;;;;6.75;2.47;;;0.90;99.90;;;;;;5052541;28;20055;-63
2023/01/07 03:43:03;;;;;;;7.00;2.90;;;0.90;99.90;;;;;;5068389;28;20048;-63
2023/01/07 03:45:30;;;;;;;7.82;3.03;;;0.90;99.90;;;;;;5069766;28;20444;-63
2023/01/07 03:47:58;;;;;;;6.97;3.13;;;0.90;99.90;;;;;;5053237;28;20044;-63
2023/01/07 03:50:32;;;;;;;6.63;2.95;;;1.00;99.90;;;;;;5036521;28;20102;-64
2023/01/07 03:52:59;;;;;;;4.00;2.88;;;0.90;99.90;;;;;;5051509;28;20139;-63
2023/01/07 03:55:27;;;;;;;4.13;2.20;;;0.90;99.90;;;;;;5052591;28;20055;-63
2023/01/07 03:57:56;;;;;;;6.63;2.92;;;0.80;99.90;;;;;;5059716;28;20131;-60
2023/01/07 04:00:24;;;;;;;6.15;2.97;;;0.80;99.90;;;;;;5085968;28;20043;-61
2023/01/07 04:02:57;;;;;;;5.10;2.83;;;0.80;99.90;;;;;;5049071;28;20045;-63
2023/01/07 04:05:32;;;;;;;6.72;3.45;;;0.70;99.90;;;;;;5053270;28;20406;-63
2023/01/07 04:07:59;;;;;;;8.77;3.75;;;0.80;99.90;;;;;;5055767;28;20052;-63
2023/01/07 04:10:31;;;;;;;10.50;5.15;;;0.90;99.90;;;;;;5054607;28;20047;-63
2023/01/07 04:12:57;;;;;;;10.25;5.00;;;0.90;99.90;;;;;;5054800;28;20036;-63
2023/01/07 04:15:24;;;;;;;11.80;5.38;;;0.90;99.90;;;;;;5055120;28;20075;-62
2023/01/07 04:17:51;;;;;;;6.63;2.90;;;1.00;99.90;;;;;;5067072;28;20047;-63
2023/01/07 04:20:18;;;;;;;9.20;4.10;;;1.00;99.90;;;;;;5055405;28;20074;-63
2023/01/07 04:23:10;;;;;;;8.13;3.92;;;1.00;99.90;;;;;;5070136;28;20048;-63
2023/01/07 04:25:37;;;;;;;9.82;4.40;;;0.90;99.90;;;;;;5066709;28;20057;-63
2023/01/07 04:28:07;;;;;;;8.98;4.38;;;0.90;99.90;;;;;;5080682;28;20032;-62
2023/01/07 04:30:34;;;;;;;;;;;0.90;99.90;;;;;;5052505;28;20045;-63
2023/01/07 04:33:01;;;;;;;8.40;3.33;;;0.80;99.90;;;;;;5054739;28;19921;-63
2023/01/07 04:35:28;;;;;;;5.35;3.15;;;0.80;99.90;;;;;;5055850;28;20055;-63
2023/01/07 04:37:55;;;;;;;8.63;3.85;;;0.80;99.90;;;;;;5069711;28;20048;-62
2023/01/07 04:40:22;;;;;;;8.05;3.95;;;0.80;99.90;;;;;;5070704;28;20057;-63
2023/01/07 04:42:49;;;;;;;8.32;4.22;;;0.80;99.90;;;;;;5075079;28;20052;-63
2023/01/07 04:45:16;;;;;;;10.05;4.00;;;0.70;99.90;;;;;;5075696;28;20504;-63
2023/01/07 04:47:43;;;;;;;11.18;4.35;;;0.70;99.90;;;;;;5057761;28;20040;-63
2023/01/07 04:50:10;;;;;;;10.85;4.53;;;0.70;99.90;;;;;;5054980;28;20497;-63
2023/01/07 04:52:38;;;;;;;15.63;5.70;;;0.70;99.90;;;;;;5070468;28;20459;-63
2023/01/07 04:55:06;;;;;;;14.70;6.05;;;0.70;99.90;;;;;;5055345;28;20047;-63
2023/01/07 04:57:33;;;;;;;9.65;5.50;;;0.70;99.90;;;;;;5067353;28;20041;-63
2023/01/07 04:59:59;;;;;;;6.95;3.85;;;0.70;99.90;;;;;;5073093;28;20047;-63
2023/01/07 05:02:26;;;;;;;8.82;4.40;;;0.70;99.90;;;;;;5054512;28;20046;-63
2023/01/07 05:04:53;;;;;;;14.80;5.82;;;0.70;99.90;;;;;;5055172;28;20044;-63
2023/01/07 05:07:20;;;;;;;10.95;5.18;;;0.60;99.90;;;;;;5062450;28;20139;-63
2023/01/07 05:09:47;;;;;;;11.85;5.43;;;0.60;99.90;;;;;;5054174;28;20040;-63
2023/01/07 05:12:14;;;;;;;11.27;5.50;;;0.60;99.90;;;;;;5054616;28;20044;-63
2023/01/07 05:14:42;;;;;;;;;;;0.50;99.90;;;;;;5054943;28;20132;-62
2023/01/07 05:17:08;;;;;;;12.07;5.57;;;0.50;99.90;;;;;;5052994;28;19931;-63
2023/01/07 05:19:36;;;;;;;11.55;5.88;;;0.40;99.90;;;;;;5068504;28;20084;-63
2023/01/07 05:22:03;;;;;;;13.60;6.57;;;0.40;99.90;;;;;;5092466;28;20097;-63
2023/01/07 05:24:35;;;;;;;12.07;6.50;;;0.40;99.90;;;;;;5074661;28;20114;-63
2023/01/07 05:27:02;;;;;;;12.65;6.10;;;0.50;99.90;;;;;;5054917;28;20048;-62
2023/01/07 05:29:28;;;;;;;9.20;5.75;;;0.40;99.90;;;;;;5060322;28;20048;-63
2023/01/07 05:31:55;;;;;;;11.65;6.20;;;0.40;99.90;;;;;;5068370;28;20039;-63
2023/01/07 05:34:22;;;;;;;10.48;4.90;;;0.50;99.90;;;;;;5070859;28;20444;-63
2023/01/07 05:36:49;;;;;;;14.65;7.20;;;0.40;99.90;;;;;;5069777;28;20064;-63
2023/01/07 05:39:16;;;;;;;17.75;7.35;;;0.40;99.90;;;;;;5048215;28;20389;-63
2023/01/07 05:41:42;;;;;;;13.98;6.78;;;0.40;99.90;;;;;;5053270;28;20041;-63
2023/01/07 05:44:09;;;;;;;16.55;6.55;;;0.40;99.90;;;;;;5054239;28;20094;-63
2023/01/07 05:46:36;;;;;;;9.98;6.05;;;0.40;99.90;;;;;;5064716;28;20053;-63
2023/01/07 05:49:03;;;;;;;12.45;5.88;;;0.50;99.90;;;;;;5072036;28;20044;-63
2023/01/07 05:51:30;;;;;;;14.40;7.50;;;0.40;99.90;;;;;;5065051;28;20041;-62
2023/01/07 05:53:56;;;;;;;17.27;7.97;;;0.40;99.90;;;;;;5071478;28;20040;-63
2023/01/07 05:56:23;;;;;;;13.07;7.53;;;0.40;99.90;;;;;;5070986;28;20068;-63
2023/01/07 05:58:50;;;;;;;10.23;6.25;;;0.30;99.90;;;;;;5071794;28;20038;-63
2023/01/07 06:01:17;;;;;;;7.63;4.40;;;0.30;99.90;;;;;;5064743;28;20048;-63
2023/01/07 06:03:44;;;;;;;17.08;6.80;;;0.30;99.90;;;;;;5071494;28;20045;-63
2023/01/07 06:06:11;;;;;;;;;;;0.30;99.90;;;;;;5071935;28;20055;-63
2023/01/07 06:08:38;;;;;;;13.88;7.60;;;0.30;99.90;;;;;;5071778;28;20377;-63
2023/01/07 06:11:06;;;;;;;12.82;7.18;;;0.30;99.90;;;;;;5072948;28;20063;-63
2023/01/07 06:13:34;;;;;;;15.23;7.00;;;0.30;99.90;;;;;;5087916;28;20036;-62
2023/01/07 06:16:02;;;;;;;25.15;8.45;;;0.30;99.90;;;;;;5085227;28;20044;-63
2023/01/07 06:18:30;;;;;;;24.85;7.70;;;0.30;99.90;;;;;;5071999;28;20472;-63
2023/01/07 06:20:57;;;;;;;13.70;6.80;;;0.30;99.90;;;;;;5070071;28;20044;-63
2023/01/07 06:23:23;;;;;;;14.65;7.05;;;0.30;99.90;;;;;;5069429;28;20048;-63
2023/01/07 06:25:50;;;;;;;8.93;4.38;;;0.30;99.90;;;;;;5080519;28;20045;-63
2023/01/07 06:28:17;;;;;;;14.20;7.40;;;0.30;99.90;;;;;;5064354;28;20052;-63
2023/01/07 06:30:45;;;;;;;;;;;0.20;99.90;;;;;;5061415;28;20107;-63
2023/01/07 06:33:12;;;;;;;18.38;9.27;;;0.20;99.90;;;;;;5057847;28;19971;-62
2023/01/07 06:35:39;;;;;;;17.02;8.23;;;0.20;99.90;;;;;;5054355;28;20048;-63
2023/01/07 06:38:06;;;;;;;15.70;7.10;;;0.20;99.90;;;;;;5075497;28;20036;-63
2023/01/07 06:40:33;;;;;;;16.73;6.75;;;0.20;99.90;;;;;;5076845;28;20094;-63
2023/01/07 06:43:00;;;;;;;12.32;6.90;;;0.20;99.90;;;;;;5071015;28;20372;-63
2023/01/07 06:45:27;;;;;;;10.25;4.70;;;0.20;99.90;;;;;;5070341;28;20048;-62
2023/01/07 06:47:56;;;;;;;14.73;6.68;;;0.30;99.90;;;;;;5071198;28;20044;-63
2023/01/07 06:50:23;;;;;;;11.60;6.05;;;0.30;99.90;;;;;;5065454;28;20044;-63
2023/01/07 06:52:50;;;;;;;11.75;5.80;;;0.30;99.90;;;;;;5070551;28;20072;-63
2023/01/07 06:55:17;;;;;;;14.63;6.68;;;0.30;99.90;;;;;;5071088;28;20452;-63
2023/01/07 06:57:43;;;;;;;11.25;5.82;;;0.30;99.90;;;;;;5073600;28;20040;-62
2023/01/07 07:00:11;;;;;;;13.50;6.68;;;0.30;99.90;;;;;;5064851;28;20052;-62
2023/01/07 07:02:37;;;;;;;;;;;0.30;99.90;;;;;;5070599;28;20040;-63
2023/01/07 07:05:04;;;;;;;12.82;6.50;;;0.40;99.90;;;;;;5070312;28;19920;-63
2023/01/07 07:07:32;;;;;;;15.05;6.68;;;0.30;99.90;;;;;;5070047;28;20072;-63
2023/01/07 07:09:58;;;;;;;;;;;0.30;99.90;;;;;;5082844;28;20090;-63
2023/01/07 07:12:25;;;;;;;13.35;7.18;;;0.40;99.90;;;;;;5072063;28;19928;-63
2023/01/07 07:14:51;;;;;;;10.02;5.65;;;0.40;99.90;;;;;;5070573;28;20045;-63
2023/01/07 07:17:18;;;;;;;9.98;4.78;;;0.40;99.90;;;;;;5052813;28;20515;-62
2023/01/07 07:19:45;;;;;;;14.13;7.90;;;0.50;99.90;;;;;;5077759;28;20089;-62
2023/01/07 07:22:12;;;;;;;15.45;7.15;;;0.50;99.90;;;;;;5084189;28;20059;-63
2023/01/07 07:24:38;;;;;;;17.52;7.40;;;0.50;99.90;;;;;;5069877;28;20098;-63
2023/01/07 07:27:05;;;;;;;16.15;7.55;;;0.50;99.90;;;;;;5071043;28;20459;-63
2023/01/07 07:29:32;;;;;;;10.82;5.75;;;0.60;99.90;;;;;;5070415;28;20078;-63
2023/01/07 07:31:58;;;;;;;12.93;6.32;;;0.60;99.90;;;;;;5076895;28;20040;-63
2023/01/07 07:34:25;;;;;;;10.52;5.60;;;0.60;99.90;;;;;;5084014;28;20074;-63
2023/01/07 07:36:52;;;;;;;9.90;5.95;;;0.60;99.90;;;;;;5069407;28;20032;-63
2023/01/07 07:39:18;;;;;;;13.80;4.43;;;0.60;99.90;;;;;;5070657;28;20090;-63
2023/01/07 07:41:45;;;;;;;9.32;4.93;;;0.60;99.90;;;;;;5073239;28;20056;-62
2023/01/07 07:44:15;;;;;;;13.48;6.57;;;0.70;99.90;;;;;;5054986;28;20053;-63
2023/01/07 07:46:42;;;;;;;9.57;5.75;;;0.70;99.90;;;;;;5078462;28;20056;-63
2023/01/07 07:49:12;;;;;;;8.60;5.18;;;0.70;99.90;;;;;;5074265;28;20511;-63
2023/01/07 07:51:39;;;;;;;10.32;5.40;;;0.70;99.90;;;;;;5073681;28;20098;-62
2023/01/07 07:54:05;;;;;;;10.73;5.47;;;0.80;99.90;;;;;;5074522;28;20072;-63
2023/01/07 07:56:32;;;;;;;10.90;6.35;;;0.80;99.90;;;;;;5072412;28;20172;-62
2023/01/07 07:58:59;;;;;;;14.55;6.35;;;0.80;99.90;;;;;;5074227;28;20036;-62
2023/01/07 08:01:26;;;;;;;13.05;6.00;;;0.80;99.90;;;;;;5073245;28;20044;-62
2023/01/07 08:03:52;;;;;;;11.18;5.68;;;0.80;99.90;;;;;;5056570;28;20043;-63
2023/01/07 08:06:19;;;;;;;9.60;4.93;;;0.80;99.90;;;;;;5079260;28;20048;-62
2023/01/07 08:08:46;;;;;;;14.98;6.68;;;0.80;99.90;;;;;;5086063;28;20065;-63
2023/01/07 08:11:12;;;;;;;11.13;5.18;;;0.80;99.90;;;;;;5094422;28;20382;-62
2023/01/07 08:13:39;;;;;;;17.48;7.80;;;0.80;99.90;;;;;;5084887;28;20028;-63
2023/01/07 08:16:06;;;;;;;11.90;5.50;;;0.80;99.90;;;;;;5086233;28;20089;-62
2023/01/07 08:18:33;;;;;;;13.85;7.30;;;0.80;99.90;;;;;;5075848;28;20040;-63
2023/01/07 08:20:59;;;;;;;13.45;5.97;;;0.80;99.90;;;;;;5085499;28;20093;-63
2023/01/07 08:23:30;;;;;;;12.98;7.72;;;0.80;99.90;;;;;;5093323;28;20069;-62
2023/01/07 08:26:01;;;;;;;14.27;7.05;;;0.80;99.90;;;;;;5084301;28;20055;-63
2023/01/07 08:28:32;;;;;;;12.90;6.55;;;0.90;99.90;;;;;;5067583;28;20097;-63
2023/01/07 08:31:03;;;;;;;15.15;6.80;;;0.90;99.90;;;;;;5093870;28;20044;-63
2023/01/07 08:33:36;;;;;;;11.48;6.40;;;0.90;99.90;;;;;;5092017;28;20360;-62
2023/01/07 08:36:04;;;;;;;12.18;5.53;;;0.90;99.90;;;;;;5074119;28;20040;-62
2023/01/07 08:38:37;;;;;;;8.98;5.13;;;1.00;99.90;;;;;;5072385;28;20090;-62
2023/01/07 08:41:04;;;;;;;9.88;5.30;;;1.00;99.90;;;;;;5073109;28;20090;-63
2023/01/07 08:43:32;;;;;;;9.55;6.05;;;1.00;99.90;;;;;;5088970;28;20097;-63
2023/01/07 08:45:58;;;;;;;;;;;1.00;99.90;;;;;;5094172;28;20048;-63
2023/01/07 08:48:25;;;;;;;13.60;6.35;;;1.10;99.90;;;;;;5075882;28;19924;-62
2023/01/07 08:50:53;;;;;;;10.98;4.75;;;1.20;99.90;;;;;;5083539;28;20060;-62
2023/01/07 08:53:21;;;;;;;12.10;6.45;;;1.30;99.90;;;;;;5091233;28;20108;-63
2023/01/07 08:55:48;;;;;;;13.85;6.70;;;1.30;99.90;;;;;;5080495;28;20083;-63
2023/01/07 08:58:15;;;;;;;;;;;1.40;99.90;;;;;;5067369;28;20062;-63
2023/01/07 09:00:41;;;;;;;12.40;5.80;;;1.50;99.90;;;;;;5082446;28;19924;-63
2023/01/07 09:03:08;;;;;;;12.32;6.18;;;1.60;99.90;;;;;;5072798;28;20049;-63
2023/01/07 09:05:35;;;;;;;10.20;5.30;;;1.60;99.90;;;;;;5070724;28;20157;-62
2023/01/07 09:08:02;;;;;;;11.13;6.18;;;1.70;99.90;;;;;;5072995;28;20098;-63
2023/01/07 09:10:29;;;;;;;14.77;6.20;;;1.80;99.90;;;;;;5071219;28;20110;-62
2023/01/07 09:12:56;;;;;;;10.18;5.38;;;1.80;99.90;;;;;;5080217;28;20105;-63
2023/01/07 09:15:23;;;;;;;10.63;5.38;;;2.00;99.90;;;;;;5070546;28;20044;-63
2023/01/07 09:17:50;;;;;;;9.98;5.22;;;2.10;99.90;;;;;;5070974;28;20048;-62
2023/01/07 09:20:17;;;;;;;12.82;5.72;;;2.10;99.90;;;;;;5071679;28;20554;-63
2023/01/07 09:22:44;;;;;;;10.23;5.97;;;2.20;99.90;;;;;;5070142;28;20044;-63
2023/01/07 09:25:14;;;;;;;;;;;2.30;99.90;;;;;;5072263;28;20044;-62
2023/01/07 09:27:41;;;;;;;15.77;5.70;;;2.30;99.90;;;;;;5069910;28;19921;-62
2023/01/07 09:30:08;;;;;;;7.70;4.10;;;2.50;99.90;;;;;;5117844;22;20047;-58
2023/01/07 09:32:35;;;;;;;10.23;4.70;;;2.60;99.90;;;;;;5115739;27;20093;-59
2023/01/07 09:35:03;;;;;;;8.02;4.28;;;2.60;99.90;;;;;;5112786;28;20425;-59
2023/01/07 09:37:29;;;;;;;13.35;5.25;;;2.70;99.90;;;;;;5112855;28;20048;-58
2023/01/07 09:39:56;;;;;;;9.50;4.82;;;2.80;99.90;;;;;;5112993;28;20035;-58
2023/01/07 09:42:46;;;;;;;11.75;4.75;;;2.80;99.90;;;;;;5123035;27;20067;-59
2023/01/07 09:45:20;;;;;;;12.73;4.82;;;2.80;99.90;;;;;;5122554;27;20113;-58
2023/01/07 09:47:52;;;;;;;12.82;6.93;;;2.80;99.90;;;;;;5112852;28;20078;-59
2023/01/07 09:50:50;;;;;;;7.25;4.43;;;2.90;99.90;;;;;;5112431;28;20184;-58
2023/01/07 09:53:25;;;;;;;10.95;5.72;;;2.90;99.90;;;;;;5111284;28;20123;-59
2023/01/07 09:55:54;;;;;;;14.40;6.07;;;2.90;99.90;;;;;;5129982;27;20104;-59
2023/01/07 09:58:40;;;;;;;12.02;5.85;;;3.00;99.90;;;;;;5112676;27;20043;-59
2023/01/07 10:01:16;;;;;;;23.80;11.07;;;3.10;99.90;;;;;;5124246;27;20047;-59
2023/01/07 10:04:12;;;;;;;28.20;12.38;;;3.20;99.90;;;;;;5132191;27;20085;-59
2023/01/07 10:06:48;;;;;;;11.25;5.45;;;3.30;99.90;;;;;;5110392;27;20120;-59
2023/01/07 10:09:47;;;;;;;8.70;5.00;;;3.40;99.90;;;;;;5132442;27;20503;-58
2023/01/07 10:12:35;;;;;;;9.90;5.03;;;3.40;99.90;;;;;;5122763;27;20067;-58
2023/01/07 10:16:09;;;;;;;8.20;3.40;;;3.50;99.90;;;;;;5114630;27;20048;-59
2023/01/07 10:19:01;;;;;;;9.13;4.38;;;3.40;99.90;;;;;;5088995;28;20048;-59
2023/01/07 10:21:39;;;;;;;11.85;4.90;;;3.40;99.90;;;;;;5089483;28;20101;-59
2023/01/07 10:24:22;;;;;;;9.70;5.03;;;3.50;99.90;;;;;;5114391;27;20081;-59
2023/01/07 10:26:53;;;;;;;15.38;6.45;;;3.70;99.90;;;;;;5112248;28;20074;-59
2023/01/07 10:29:40;;;;;;;18.75;7.03;;;3.80;99.90;;;;;;5112403;27;20048;-59
2023/01/07 10:32:18;;;;;;;14.13;6.55;;;3.90;99.90;;;;;;5120069;27;20036;-59
2023/01/07 10:34:52;;;;;;;11.25;5.20;;;3.90;99.90;;;;;;5112044;27;20123;-59
2023/01/07 10:37:27;;;;;;;8.52;4.65;;;3.90;99.90;;;;;;5116052;27;20484;-59
2023/01/07 10:40:17;;;;;;;7.03;3.78;;;3.90;99.90;;;;;;5111491;28;20100;-59
2023/01/07 10:42:51;;;;;;;9.82;4.78;;;4.00;99.90;;;;;;5111260;28;20044;-59
2023/01/07 10:45:43;;;;;;;9.65;3.75;;;4.10;99.90;;;;;;5127088;27;20448;-59
2023/01/07 10:48:23;;;;;;;10.77;3.78;;;4.10;99.90;;;;;;5115247;27;20121;-59
2023/01/07 10:50:56;;;;;;;6.68;3.72;;;4.10;99.90;;;;;;5111585;28;20036;-59
2023/01/07 10:53:25;;;;;;;5.60;3.35;;;4.10;99.90;;;;;;5109542;28;20043;-59
2023/01/07 10:56:07;;;;;;;6.18;4.00;;;4.10;99.90;;;;;;5111774;28;20043;-59
2023/01/07 10:58:40;;;;;;;6.07;3.17;;;4.00;99.90;;;;;;5118723;27;20098;-59
2023/01/07 11:01:17;;;;;;;6.00;3.70;;;4.00;99.90;;;;;;5115906;27;20043;-59
2023/01/07 11:03:48;;;;;;;7.70;3.80;;;4.00;99.90;;;;;;5124048;27;20043;-59
2023/01/07 11:06:18;;;;;;;7.15;3.70;;;4.10;99.90;;;;;;5120674;28;20426;-59
2023/01/07 11:08:45;;;;;;;5.97;3.33;;;4.20;99.90;;;;;;5121494;28;20039;-59
2023/01/07 11:11:17;;;;;;;6.47;3.67;;;4.30;99.90;;;;;;5115719;28;20067;-59
2023/01/07 11:13:58;;;;;;;7.43;3.83;;;4.40;99.90;;;;;;5108461;28;20542;-59
2023/01/07 11:16:34;;;;;;;7.25;3.22;;;4.60;99.90;;;;;;5113785;28;20453;-59
2023/01/07 11:19:10;;;;;;;6.90;3.25;;;4.70;99.90;;;;;;5115519;27;20065;-59
2023/01/07 11:21:44;;;;;;;5.15;2.92;;;4.80;99.90;;;;;;5122164;27;20561;-59
2023/01/07 11:24:25;;;;;;;5.72;2.75;;;4.90;99.90;;;;;;5120090;27;20096;-59
2023/01/07 11:27:00;;;;;;;4.57;2.92;;;5.00;99.90;;;;;;5120088;27;20043;-59
2023/01/07 11:29:50;;;;;;;6.72;3.63;;;5.10;99.90;;;;;;5114014;27;20081;-59
2023/01/07 11:32:27;;;;;;;6.38;3.40;;;5.10;99.90;;;;;;5082935;28;20126;-59
2023/01/07 11:34:58;;;;;;;4.85;3.20;;;5.20;99.90;;;;;;5118192;27;20084;-59
2023/01/07 11:37:38;;;;;;;8.05;3.38;;;5.20;99.90;;;;;;5131061;27;20043;-59
2023/01/07 11:40:26;;;;;;;5.72;2.67;;;5.30;99.90;;;;;;5128075;27;20039;-59
2023/01/07 11:42:55;;;;;;;4.78;2.50;;;5.40;99.90;;;;;;5125631;27;20310;-59
2023/01/07 11:45:27;;;;;;;5.18;2.65;;;5.50;99.90;;;;;;5131102;27;20577;-59
2023/01/07 11:48:07;;;;;;;4.95;2.20;;;5.60;99.90;;;;;;5124476;27;20077;-59
2023/01/07 11:50:41;;;;;;;6.07;3.30;;;5.70;99.90;;;;;;5125098;27;20055;-59
2023/01/07 11:53:13;;;;;;;6.18;2.90;;;5.80;99.90;;;;;;5126311;27;20372;-59
2023/01/07 11:56:10;;;;;;;4.50;2.20;;;5.80;99.90;;;;;;5128647;27;20561;-59
2023/01/07 11:58:42;;;;;;;5.65;2.60;;;5.90;99.90;;;;;;5132024;27;20047;-59
2023/01/07 12:01:09;;;;;;;6.78;2.47;;;5.90;99.90;;;;;;5135480;27;20039;-59
2023/01/07 12:03:38;;;;;;;4.75;2.70;;;6.00;99.90;;;;;;5135297;27;20049;-59
2023/01/07 12:06:17;;;;;;;4.50;2.47;;;6.10;99.90;;;;;;5135773;27;20066;-59
2023/01/07 12:08:52;;;;;;;7.15;2.40;;;6.20;99.90;;;;;;5123370;27;20048;-59
2023/01/07 12:11:20;;;;;;;4.63;2.42;;;6.20;99.90;;;;;;5114716;28;20082;-59
2023/01/07 12:13:51;;;;;;;3.60;2.00;;;6.30;99.90;;;;;;5114342;28;20065;-59
2023/01/07 12:16:26;;;;;;;4.03;2.25;;;6.40;99.90;;;;;;5121496;27;20487;-59
2023/01/07 12:19:03;;;;;;;3.42;2.17;;;6.50;99.90;;;;;;5124106;27;20039;-59
2023/01/07 12:21:42;;;;;;;4.83;2.70;;;6.50;99.90;;;;;;5120514;27;20380;-59
2023/01/07 12:24:18;;;;;;;4.97;2.47;;;6.50;99.90;;;;;;5125018;27;20031;-59
2023/01/07 12:27:03;;;;;;;5.32;2.30;;;6.60;99.90;;;;;;5124419;27;20043;-59
2023/01/07 12:29:50;;;;;;;4.10;1.83;;;6.70;99.90;;;;;;5122192;27;20500;-59
2023/01/07 12:33:01;;;;;;;4.32;1.92;;;6.70;99.90;;;;;;5100067;27;20080;-59
2023/01/07 12:35:34;;;;;;;4.03;2.25;;;6.80;99.90;;;;;;5048700;28;20057;-59
2023/01/07 12:38:12;;;;;;;5.60;2.30;;;6.90;99.90;;;;;;5047980;28;20517;-59
2023/01/07 12:40:57;;;;;;;7.07;2.80;;;7.00;99.90;;;;;;5091722;28;20055;-59
2023/01/07 12:43:42;;;;;;;5.15;2.53;;;7.10;99.90;;;;;;5125362;27;20090;-59
2023/01/07 12:46:16;;;;;;;8.30;3.17;;;7.00;99.90;;;;;;5125887;27;20388;-59
2023/01/07 12:48:54;;;;;;;8.60;4.03;;;7.10;99.90;;;;;;5122589;27;20123;-59
2023/01/07 12:51:42;;;;;;;6.72;3.20;;;7.20;99.90;;;;;;5121181;27;20097;-59
2023/01/07 12:54:21;;;;;;;4.57;2.33;;;7.20;99.90;;;;;;5122347;27;20036;-59
2023/01/07 12:57:18;;;;;;;4.18;2.22;;;7.20;99.90;;;;;;5118619;27;20085;-59
2023/01/07 12:59:59;;;;;;;4.72;2.20;;;7.20;99.90;;;;;;5126937;27;20043;-59
2023/01/07 13:02:50;;;;;;;7.75;3.55;;;7.30;99.90;;;;;;5121567;27;20085;-59
2023/01/07 13:05:25;;;;;;;10.43;5.05;;;7.40;99.90;;;;;;5123193;27;20104;-59
2023/01/07 13:07:54;;;;;;;9.18;5.00;;;7.40;99.90;;;;;;5124718;27;20039;-59
2023/01/07 13:10:39;;;;;;;7.13;3.30;;;7.50;99.90;;;;;;5119451;27;20105;-59
2023/01/07 13:13:18;;;;;;;5.38;2.80;;;7.60;99.90;;;;;;5113117;28;20039;-59
2023/01/07 13:15:47;;;;;;;7.55;2.83;;;7.60;99.90;;;;;;5112407;28;20074;-59
2023/01/07 13:18:16;;;;;;;4.57;2.63;;;7.60;99.90;;;;;;5117913;27;20096;-59
2023/01/07 13:20:46;;;;;;;5.82;2.92;;;7.60;99.90;;;;;;5125209;27;20071;-60
2023/01/07 13:23:25;;;;;;;5.93;2.75;;;7.70;99.90;;;;;;5133903;27;20078;-60
2023/01/07 13:26:01;;;;;;;5.15;2.50;;;7.60;99.90;;;;;;5133938;27;20043;-59